createdAt,value
2023-05-19T00:01:28.358Z,2.22
2023-05-19T00:03:59.037Z,2.00
2023-05-19T00:06:31.836Z,1.92
2023-05-19T00:09:02.246Z,2.10
2023-05-19T00:11:31.177Z,2.05
2023-05-19T00:14:00.885Z,2.15
2023-05-19T00:16:30.667Z,1.88
2023-05-19T00:19:00.323Z,2.20
2023-05-19T00:21:31.310Z,1.98
2023-05-19T00:23:59.703Z,1.75
2023-05-19T00:26:28.645Z,2.22
2023-05-19T00:29:03.290Z,2.05
2023-05-19T00:31:34.125Z,2.38
2023-05-19T00:34:04.969Z,2.00
2023-05-19T00:36:34.652Z,2.10
2023-05-19T00:39:03.073Z,2.33
2023-05-19T00:41:31.333Z,2.67
2023-05-19T00:43:59.673Z,2.33
2023-05-19T00:46:28.388Z,2.33
2023-05-19T00:48:56.735Z,2.30
2023-05-19T00:51:27.368Z,2.25
2023-05-19T00:53:57.272Z,2.35
2023-05-19T00:56:26.514Z,2.20
2023-05-19T00:58:56.043Z,2.28
2023-05-19T01:01:26.861Z,2.83
2023-05-19T01:03:56.850Z,2.92
2023-05-19T01:06:25.554Z,3.00
2023-05-19T01:08:53.977Z,2.80
2023-05-19T01:11:23.562Z,3.00
2023-05-19T01:13:52.031Z,2.97
2023-05-19T01:16:26.329Z,3.53
2023-05-19T01:19:01.839Z,3.55
2023-05-19T01:22:13.233Z,3.35
2023-05-19T01:25:11.415Z,2.75
2023-05-19T01:28:15.842Z,3.38
2023-05-19T01:30:52.481Z,3.30
2023-05-19T01:33:23.447Z,3.38
2023-05-19T01:35:52.920Z,3.88
2023-05-19T01:38:22.182Z,4.20
2023-05-19T01:40:51.450Z,3.75
2023-05-19T01:43:21.939Z,3.70
2023-05-19T01:45:53.007Z,4.85
2023-05-19T01:48:23.935Z,5.25
2023-05-19T01:50:52.453Z,4.57
2023-05-19T01:53:20.779Z,4.10
2023-05-19T01:55:53.010Z,4.25
2023-05-19T01:58:39.847Z,4.30
2023-05-19T02:01:17.889Z,3.92
2023-05-19T02:04:01.355Z,3.92
2023-05-19T02:06:47.235Z,4.13
2023-05-19T02:09:19.919Z,3.95
2023-05-19T02:11:53.921Z,4.22
2023-05-19T02:14:26.981Z,4.18
2023-05-19T02:16:59.386Z,4.05
2023-05-19T02:19:29.680Z,4.28
2023-05-19T02:21:58.237Z,4.32
2023-05-19T02:24:27.408Z,4.35
2023-05-19T02:26:56.104Z,4.55
2023-05-19T02:29:24.588Z,5.07
2023-05-19T02:31:52.891Z,5.45
2023-05-19T02:34:23.003Z,5.32
2023-05-19T02:36:51.718Z,5.10
2023-05-19T02:39:20.052Z,5.60
2023-05-19T02:41:48.617Z,5.85
2023-05-19T02:44:16.869Z,5.80
2023-05-19T02:46:45.143Z,5.70
2023-05-19T02:49:13.492Z,5.35
2023-05-19T02:51:43.522Z,5.05
2023-05-19T02:54:12.072Z,4.72
2023-05-19T02:56:40.300Z,5.10
2023-05-19T02:59:08.818Z,4.85
2023-05-19T03:01:37.846Z,4.75
2023-05-19T03:04:06.675Z,4.45
2023-05-19T03:06:35.145Z,4.38
2023-05-19T03:09:05.096Z,4.68
2023-05-19T03:11:33.519Z,4.57
2023-05-19T03:14:01.758Z,4.53
2023-05-19T03:16:30.161Z,4.82
2023-05-19T03:18:58.612Z,4.57
2023-05-19T03:21:26.979Z,4.70
2023-05-19T03:23:55.809Z,4.50
2023-05-19T03:26:26.305Z,4.32
2023-05-19T03:28:54.544Z,4.00
2023-05-19T03:31:22.865Z,3.63
2023-05-19T03:33:51.143Z,4.45
2023-05-19T03:36:19.548Z,4.20
2023-05-19T03:38:47.940Z,3.83
2023-05-19T03:41:16.154Z,4.47
2023-05-19T03:43:45.821Z,4.22
2023-05-19T03:46:14.239Z,4.13
2023-05-19T03:49:00.816Z,4.53
2023-05-19T03:51:48.999Z,4.13
2023-05-19T03:54:31.780Z,4.13
2023-05-19T03:57:00.147Z,4.18
2023-05-19T03:59:29.888Z,4.40
2023-05-19T04:01:58.575Z,4.60
2023-05-19T04:04:28.470Z,4.80
2023-05-19T04:06:56.827Z,4.93
2023-05-19T04:09:25.140Z,4.40
2023-05-19T04:11:53.376Z,4.55
2023-05-19T04:14:21.631Z,4.07
2023-05-19T04:16:51.452Z,4.25
2023-05-19T04:19:19.761Z,4.18
2023-05-19T04:21:48.136Z,4.30
2023-05-19T04:24:19.124Z,4.75
2023-05-19T04:26:51.602Z,4.50
2023-05-19T04:29:21.847Z,3.83
2023-05-19T04:31:55.321Z,4.18
2023-05-19T04:34:24.421Z,3.90
2023-05-19T04:36:53.462Z,3.78
2023-05-19T04:39:24.318Z,3.55
2023-05-19T04:41:54.121Z,3.50
2023-05-19T04:44:22.389Z,3.42
2023-05-19T04:46:54.716Z,3.42
2023-05-19T04:49:25.518Z,3.47
2023-05-19T04:51:55.897Z,3.70
2023-05-19T04:54:28.617Z,3.70
2023-05-19T04:56:57.573Z,3.20
2023-05-19T04:59:28.519Z,3.15
2023-05-19T05:01:58.657Z,3.25
2023-05-19T05:04:29.265Z,3.05
2023-05-19T05:06:57.519Z,3.67
2023-05-19T05:09:27.590Z,3.10
2023-05-19T05:11:58.524Z,2.70
2023-05-19T05:14:27.484Z,2.63
2023-05-19T05:16:58.112Z,2.45
2023-05-19T05:19:29.705Z,3.20
2023-05-19T05:21:58.823Z,3.05
2023-05-19T05:24:28.112Z,2.70
2023-05-19T05:27:00.493Z,2.63
2023-05-19T05:29:29.677Z,2.63
2023-05-19T05:31:59.295Z,2.70
2023-05-19T05:34:27.854Z,2.30
2023-05-19T05:36:57.023Z,2.28
2023-05-19T05:39:25.291Z,2.63
2023-05-19T05:41:56.258Z,2.38
2023-05-19T05:44:24.552Z,2.40
2023-05-19T05:46:53.508Z,2.20
2023-05-19T05:49:23.861Z,2.60
2023-05-19T05:52:04.972Z,2.58
2023-05-19T05:54:39.746Z,2.63
2023-05-19T05:57:09.946Z,2.35
2023-05-19T05:59:38.717Z,2.33
2023-05-19T06:02:07.105Z,2.28
2023-05-19T06:04:37.950Z,2.40
2023-05-19T06:07:07.812Z,2.42
2023-05-19T06:09:38.999Z,2.60
2023-05-19T06:12:09.224Z,2.40
2023-05-19T06:14:42.627Z,2.00
2023-05-19T06:17:10.858Z,2.20
2023-05-19T06:19:40.740Z,2.30
2023-05-19T06:22:09.219Z,1.98
2023-05-19T06:24:39.580Z,2.20
2023-05-19T06:27:10.767Z,2.40
2023-05-19T06:29:40.298Z,1.95
2023-05-19T06:32:10.473Z,1.98
2023-05-19T06:34:41.588Z,2.92
2023-05-19T06:37:10.610Z,2.30
2023-05-19T06:39:39.569Z,2.20
2023-05-19T06:42:08.097Z,2.42
2023-05-19T06:45:02.549Z,2.10
2023-05-19T06:47:30.962Z,2.30
2023-05-19T06:50:01.715Z,2.15
2023-05-19T06:52:33.028Z,2.33
2023-05-19T06:55:03.244Z,2.42
2023-05-19T06:57:33.025Z,3.03
2023-05-19T07:00:03.115Z,2.03
2023-05-19T07:02:32.042Z,2.33
2023-05-19T07:05:01.712Z,2.10
2023-05-19T07:07:29.963Z,2.20
2023-05-19T07:09:59.984Z,2.05
2023-05-19T07:12:29.435Z,2.03
2023-05-19T07:15:00.765Z,2.00
2023-05-19T07:17:31.044Z,2.42
2023-05-19T07:20:02.279Z,2.38
2023-05-19T07:22:32.522Z,2.30
2023-05-19T07:25:01.583Z,2.28
2023-05-19T07:27:37.857Z,2.25
2023-05-19T07:30:14.643Z,2.50
2023-05-19T07:32:45.701Z,2.42
2023-05-19T07:35:18.129Z,2.60
2023-05-19T07:37:46.627Z,2.45
2023-05-19T07:40:17.204Z,2.10
2023-05-19T07:42:45.820Z,2.53
2023-05-19T07:45:14.331Z,2.67
2023-05-19T07:47:44.335Z,2.55
2023-05-19T07:50:14.745Z,2.15
2023-05-19T07:52:47.123Z,2.20
2023-05-19T07:55:20.000Z,2.35
2023-05-19T07:57:48.921Z,2.40
2023-05-19T08:00:18.057Z,2.20
2023-05-19T08:02:46.491Z,2.70
2023-05-19T08:05:15.118Z,2.42
2023-05-19T08:07:45.325Z,2.60
2023-05-19T08:10:13.571Z,2.78
2023-05-19T08:12:41.850Z,2.30
2023-05-19T08:15:11.747Z,2.65
2023-05-19T08:17:40.879Z,2.90
2023-05-19T08:20:10.335Z,2.50
2023-05-19T08:22:38.633Z,2.83
2023-05-19T08:25:09.689Z,2.70
2023-05-19T08:27:38.025Z,3.05
2023-05-19T08:30:07.466Z,2.88
2023-05-19T08:32:35.773Z,2.75
2023-05-19T08:35:04.364Z,2.65
2023-05-19T08:37:34.126Z,2.65
2023-05-19T08:40:04.869Z,3.20
2023-05-19T08:42:34.581Z,2.83
2023-05-19T08:45:03.636Z,2.80
2023-05-19T08:47:33.084Z,2.97
2023-05-19T08:50:07.630Z,2.90
2023-05-19T08:52:49.546Z,2.83
2023-05-19T08:55:27.744Z,3.28
2023-05-19T08:57:57.968Z,2.95
2023-05-19T09:00:26.790Z,2.70
2023-05-19T09:03:10.753Z,2.83
2023-05-19T09:05:47.002Z,3.05
2023-05-19T09:08:16.148Z,2.80
2023-05-19T09:10:44.471Z,4.13
2023-05-19T09:13:14.143Z,3.33
2023-05-19T09:15:45.647Z,3.30
2023-05-19T09:18:15.521Z,3.38
2023-05-19T09:20:45.404Z,3.30
2023-05-19T09:23:18.285Z,3.50
2023-05-19T09:25:50.548Z,3.80
2023-05-19T09:28:26.846Z,3.60
2023-05-19T09:31:02.523Z,3.53
2023-05-19T09:33:31.629Z,3.10
2023-05-19T09:36:00.078Z,3.33
2023-05-19T09:38:28.592Z,3.20
2023-05-19T09:40:58.512Z,3.63
2023-05-19T09:43:30.298Z,3.78
2023-05-19T09:46:02.377Z,3.30
2023-05-19T09:48:30.762Z,3.47
2023-05-19T09:50:59.508Z,3.08
2023-05-19T09:53:28.170Z,3.25
2023-05-19T09:55:58.852Z,3.80
2023-05-19T09:58:28.340Z,3.58
2023-05-19T10:00:59.714Z,3.15
2023-05-19T10:03:29.133Z,2.83
2023-05-19T10:05:58.303Z,2.90
2023-05-19T10:08:27.899Z,3.03
2023-05-19T10:10:57.077Z,4.13
2023-05-19T10:13:25.597Z,3.28
2023-05-19T10:15:59.254Z,3.22
2023-05-19T10:18:30.026Z,3.60
2023-05-19T10:21:00.170Z,3.13
2023-05-19T10:23:28.551Z,3.25
2023-05-19T10:25:59.910Z,3.53
2023-05-19T10:28:36.724Z,3.33
2023-05-19T10:31:08.892Z,3.17
2023-05-19T10:33:48.471Z,3.30
2023-05-19T10:36:35.494Z,3.53
2023-05-19T10:39:08.692Z,3.35
2023-05-19T10:41:43.010Z,3.50
2023-05-19T10:44:23.740Z,3.40
2023-05-19T10:46:54.173Z,3.50
2023-05-19T10:49:25.634Z,3.47
2023-05-19T10:51:57.534Z,3.08
2023-05-19T10:54:43.553Z,4.07
2023-05-19T10:57:16.358Z,2.78
2023-05-19T10:59:45.826Z,3.80
2023-05-19T11:02:40.927Z,3.15
2023-05-19T11:05:13.010Z,3.35
2023-05-19T11:07:44.625Z,2.90
2023-05-19T11:10:13.735Z,3.70
2023-05-19T11:12:43.971Z,5.10
2023-05-19T11:15:14.061Z,4.90
2023-05-19T11:17:43.434Z,4.78
2023-05-19T11:20:23.941Z,4.45
2023-05-19T11:23:05.632Z,3.78
2023-05-19T11:25:43.697Z,3.88
2023-05-19T11:28:13.339Z,3.00
2023-05-19T11:30:44.451Z,3.70
2023-05-19T11:33:13.566Z,3.13
2023-05-19T11:35:44.810Z,3.10
2023-05-19T11:38:14.201Z,3.70
2023-05-19T11:40:44.456Z,3.30
2023-05-19T11:43:16.969Z,3.33
2023-05-19T11:45:46.180Z,3.58
2023-05-19T11:48:17.574Z,3.78
2023-05-19T11:50:47.687Z,3.40
2023-05-19T11:53:17.606Z,3.38
2023-05-19T11:55:47.367Z,3.08
2023-05-19T11:58:16.074Z,3.20
2023-05-19T12:00:46.375Z,3.50
2023-05-19T12:03:15.166Z,3.17
2023-05-19T12:05:49.530Z,3.10
2023-05-19T12:08:18.733Z,3.65
2023-05-19T12:10:49.945Z,3.25
2023-05-19T12:13:18.390Z,3.75
2023-05-19T12:15:46.982Z,3.42
2023-05-19T12:18:15.487Z,3.50
2023-05-19T12:20:44.732Z,3.88
2023-05-19T12:23:16.116Z,3.72
2023-05-19T12:25:44.865Z,3.40
2023-05-19T12:28:13.456Z,3.70
2023-05-19T12:30:42.141Z,3.40
2023-05-19T12:33:12.779Z,4.07
2023-05-19T12:35:41.402Z,3.38
2023-05-19T12:38:10.026Z,3.80
2023-05-19T12:40:39.886Z,3.80
2023-05-19T12:43:09.829Z,3.40
2023-05-19T12:45:39.017Z,3.60
2023-05-19T12:48:12.545Z,3.58
2023-05-19T12:50:44.351Z,3.72
2023-05-19T12:53:13.403Z,3.08
2023-05-19T12:55:44.642Z,3.45
2023-05-19T12:58:14.225Z,3.95
2023-05-19T13:00:43.785Z,3.80
2023-05-19T13:03:18.090Z,3.72
2023-05-19T13:05:47.904Z,3.60
2023-05-19T13:08:17.568Z,3.50
2023-05-19T13:10:47.954Z,3.20
2023-05-19T13:13:16.364Z,3.33
2023-05-19T13:15:45.772Z,3.67
2023-05-19T13:18:14.729Z,3.20
2023-05-19T13:20:44.553Z,3.63
2023-05-19T13:23:13.723Z,3.47
2023-05-19T13:25:42.842Z,3.20
2023-05-19T13:28:12.884Z,3.50
2023-05-19T13:30:42.384Z,3.13
2023-05-19T13:33:11.523Z,3.42
2023-05-19T13:35:41.214Z,2.92
2023-05-19T13:38:10.899Z,3.03
2023-05-19T13:40:39.897Z,3.63
2023-05-19T13:43:08.836Z,3.25
2023-05-19T13:45:38.762Z,3.65
2023-05-19T13:48:08.531Z,3.35
2023-05-19T13:50:39.970Z,3.13
2023-05-19T13:53:08.390Z,3.30
2023-05-19T13:55:36.633Z,3.30
2023-05-19T13:58:04.923Z,3.33
2023-05-19T14:00:33.529Z,3.30
2023-05-19T14:03:03.335Z,3.20
2023-05-19T14:05:31.687Z,3.50
2023-05-19T14:08:01.186Z,3.90
2023-05-19T14:10:29.739Z,3.05
2023-05-19T14:15:34.271Z,3.22
2023-05-19T14:18:05.083Z,3.67
2023-05-19T14:20:35.712Z,3.58
2023-05-19T14:23:04.298Z,3.67
2023-05-19T14:25:32.635Z,3.70
2023-05-19T14:28:02.347Z,3.70
2023-05-19T14:30:30.661Z,3.65
2023-05-19T14:32:59.103Z,3.35
2023-05-19T14:35:29.069Z,3.83
2023-05-19T14:37:57.414Z,3.75
2023-05-19T14:40:25.756Z,3.35
2023-05-19T14:42:54.057Z,3.42
2023-05-19T14:45:22.359Z,3.80
2023-05-19T14:47:52.782Z,3.90
2023-05-19T14:50:21.558Z,3.40
2023-05-19T14:52:51.489Z,3.60
2023-05-19T14:55:19.887Z,4.28
2023-05-19T14:57:48.122Z,3.83
2023-05-19T15:00:16.967Z,3.42
2023-05-19T15:02:45.376Z,3.25
2023-05-19T15:05:13.809Z,4.03
2023-05-19T15:07:42.084Z,3.63
2023-05-19T15:10:12.185Z,3.50
2023-05-19T15:12:40.596Z,3.92
2023-05-19T15:15:11.080Z,3.20
2023-05-19T15:17:39.775Z,3.60
2023-05-19T15:20:09.090Z,3.95
2023-05-19T15:22:37.718Z,4.03
2023-05-19T15:25:06.566Z,4.15
2023-05-19T15:27:37.610Z,4.30
2023-05-19T15:30:07.008Z,3.85
2023-05-19T15:32:35.277Z,4.10
2023-05-19T15:35:03.743Z,4.18
2023-05-19T15:37:32.183Z,3.83
2023-05-19T15:40:00.392Z,3.78
2023-05-19T15:42:28.733Z,3.63
2023-05-19T15:44:58.360Z,4.18
2023-05-19T15:47:26.613Z,4.10
2023-05-19T15:49:54.899Z,3.58
2023-05-19T15:52:23.163Z,4.30
2023-05-19T15:54:51.472Z,3.92
2023-05-19T15:57:19.768Z,4.00
2023-05-19T15:59:48.024Z,3.83
2023-05-19T16:02:17.898Z,4.10
2023-05-19T16:04:46.127Z,4.13
2023-05-19T16:07:14.376Z,4.55
2023-05-19T16:09:42.751Z,5.28
2023-05-19T16:12:11.468Z,3.78
2023-05-19T16:14:39.925Z,4.15
2023-05-19T16:17:11.641Z,4.30
2023-05-19T16:19:41.426Z,4.50
2023-05-19T16:22:09.681Z,4.55
2023-05-19T16:24:38.062Z,4.30
2023-05-19T16:27:09.148Z,4.60
2023-05-19T16:29:37.581Z,4.28
2023-05-19T16:32:06.514Z,4.65
2023-05-19T16:34:34.812Z,5.35
2023-05-19T16:37:04.566Z,5.05
2023-05-19T16:39:32.807Z,5.20
2023-05-19T16:42:01.073Z,4.88
2023-05-19T16:44:29.482Z,5.93
2023-05-19T16:46:57.776Z,7.50
2023-05-19T16:49:26.109Z,7.55
2023-05-19T16:51:54.387Z,6.63
2023-05-19T16:54:24.171Z,7.18
2023-05-19T16:56:52.746Z,10.00
2023-05-19T16:59:21.067Z,9.00
2023-05-19T17:01:49.595Z,8.02
2023-05-19T17:04:18.035Z,9.25
2023-05-19T17:06:47.182Z,10.18
2023-05-19T17:09:15.626Z,9.25
2023-05-19T17:11:47.837Z,9.43
2023-05-19T17:14:16.657Z,9.30
2023-05-19T17:16:45.188Z,9.15
2023-05-19T17:19:13.931Z,8.05
2023-05-19T17:21:42.427Z,7.70
2023-05-19T17:24:11.129Z,7.68
2023-05-19T17:26:39.505Z,7.00
2023-05-19T17:29:12.519Z,6.82
2023-05-19T17:31:47.498Z,7.00
2023-05-19T17:34:18.014Z,7.57
2023-05-19T17:36:49.705Z,7.53
2023-05-19T17:39:20.290Z,7.00
2023-05-19T17:41:49.001Z,6.82
2023-05-19T17:44:19.062Z,6.53
2023-05-19T17:46:47.518Z,6.40
2023-05-19T17:49:15.868Z,6.07
2023-05-19T17:51:44.668Z,6.60
2023-05-19T17:54:13.369Z,6.93
2023-05-19T17:56:43.561Z,6.55
2023-05-19T17:59:12.776Z,6.80
2023-05-19T18:01:42.863Z,7.57
2023-05-19T18:04:13.808Z,6.18
2023-05-19T18:06:46.101Z,7.75
2023-05-19T18:09:16.149Z,7.85
2023-05-19T18:11:44.458Z,7.13
2023-05-19T18:14:12.798Z,7.88
2023-05-19T18:16:42.547Z,7.97
2023-05-19T18:19:10.991Z,7.65
2023-05-19T18:21:39.277Z,6.80
2023-05-19T18:24:10.452Z,7.40
2023-05-19T18:26:41.895Z,6.85
2023-05-19T18:29:10.910Z,7.05
2023-05-19T18:31:39.431Z,7.53
2023-05-19T18:34:09.088Z,6.97
2023-05-19T18:36:37.291Z,7.72
2023-05-19T18:39:05.731Z,7.32
2023-05-19T18:41:34.028Z,7.63
2023-05-19T18:44:02.266Z,7.43
2023-05-19T18:46:31.044Z,7.10
2023-05-19T18:48:59.426Z,7.03
2023-05-19T18:51:29.953Z,7.55
2023-05-19T18:53:58.173Z,7.25
2023-05-19T18:56:27.297Z,6.90
2023-05-19T18:58:56.217Z,7.60
2023-05-19T19:01:24.597Z,6.90
2023-05-19T19:03:53.736Z,8.00
2023-05-19T19:06:23.324Z,7.32
2023-05-19T19:08:52.963Z,7.53
2023-05-19T19:11:21.605Z,7.63
2023-05-19T19:13:51.354Z,8.10
2023-05-19T19:16:19.752Z,8.23
2023-05-19T19:18:48.152Z,8.00
2023-05-19T19:21:16.577Z,7.70
2023-05-19T19:23:44.882Z,7.25
2023-05-19T19:26:14.542Z,8.18
2023-05-19T19:28:42.957Z,8.15
2023-05-19T19:31:11.518Z,7.82
2023-05-19T19:33:41.610Z,7.50
2023-05-19T19:36:10.202Z,7.05
2023-05-19T19:38:38.879Z,7.93
2023-05-19T19:41:07.474Z,8.13
2023-05-19T19:43:37.874Z,7.05
2023-05-19T19:46:08.191Z,7.47
2023-05-19T19:48:36.669Z,7.32
2023-05-19T19:51:05.242Z,7.53
2023-05-19T19:53:33.594Z,8.15
2023-05-19T19:56:02.764Z,6.93
2023-05-19T19:58:31.373Z,7.50
2023-05-19T20:01:04.388Z,7.75
2023-05-19T20:03:33.620Z,7.65
2023-05-19T20:06:02.122Z,8.68
2023-05-19T20:08:30.406Z,8.70
2023-05-19T20:11:01.782Z,9.13
2023-05-19T20:13:30.707Z,10.52
2023-05-19T20:16:02.192Z,8.63
2023-05-19T20:18:30.787Z,9.27
2023-05-19T20:20:59.034Z,12.10
2023-05-19T20:23:27.491Z,14.63
2023-05-19T20:26:12.030Z,14.20
2023-05-19T20:28:41.779Z,13.40
2023-05-19T20:31:11.793Z,12.20
2023-05-19T20:33:41.849Z,9.93
2023-05-19T20:36:11.120Z,10.98
2023-05-19T20:38:44.594Z,11.43
2023-05-19T20:41:18.784Z,11.57
2023-05-19T20:43:48.650Z,14.02
2023-05-19T20:46:18.706Z,12.07
2023-05-19T20:48:47.306Z,10.57
2023-05-19T20:51:17.360Z,13.55
2023-05-19T20:53:47.717Z,14.05
2023-05-19T20:56:18.728Z,18.38
2023-05-19T20:58:47.569Z,19.65
2023-05-19T21:01:19.862Z,18.58
2023-05-19T21:03:48.509Z,12.68
2023-05-19T21:06:16.912Z,12.10
2023-05-19T21:08:47.474Z,12.63
2023-05-19T21:11:15.825Z,11.18
2023-05-19T21:13:44.163Z,11.38
2023-05-19T21:16:12.482Z,11.60
2023-05-19T21:18:42.254Z,11.57
2023-05-19T21:21:10.894Z,11.15
2023-05-19T21:23:39.248Z,12.10
2023-05-19T21:26:07.908Z,10.85
2023-05-19T21:28:39.392Z,10.68
2023-05-19T21:31:09.153Z,10.65
2023-05-19T21:33:37.516Z,10.38
2023-05-19T21:36:07.892Z,9.45
2023-05-19T21:38:36.311Z,9.77
2023-05-19T21:41:04.718Z,10.05
2023-05-19T21:43:33.026Z,10.02
2023-05-19T21:46:03.523Z,9.48
2023-05-19T21:48:33.777Z,9.63
2023-05-19T21:51:04.249Z,9.48
2023-05-19T21:53:34.241Z,9.00
2023-05-19T21:56:02.891Z,9.43
2023-05-19T21:58:33.278Z,10.40
2023-05-19T22:01:01.755Z,8.98
2023-05-19T22:03:30.265Z,9.75
2023-05-19T22:05:58.738Z,9.90
2023-05-19T22:08:27.329Z,9.32
2023-05-19T22:10:57.127Z,10.48
2023-05-19T22:13:27.674Z,9.30
2023-05-19T22:15:57.002Z,8.70
2023-05-19T22:18:25.565Z,9.25
2023-05-19T22:20:53.924Z,7.95
2023-05-19T22:23:22.289Z,8.60
2023-05-19T22:25:50.741Z,8.35
2023-05-19T22:28:20.482Z,8.98
2023-05-19T22:30:48.815Z,8.93
2023-05-19T22:33:19.189Z,8.35
2023-05-19T22:35:48.306Z,8.20
2023-05-19T22:38:16.685Z,8.48
2023-05-19T22:40:44.967Z,8.60
2023-05-19T22:43:13.299Z,8.15
2023-05-19T22:45:43.080Z,8.40
2023-05-19T22:48:11.654Z,8.18
2023-05-19T22:50:42.880Z,7.90
2023-05-19T22:53:11.168Z,8.18
2023-05-19T22:55:39.505Z,7.53
2023-05-19T22:58:08.088Z,7.40
2023-05-19T23:00:36.573Z,8.13
2023-05-19T23:03:06.552Z,8.65
2023-05-19T23:05:36.777Z,7.82
2023-05-19T23:08:05.399Z,7.25
2023-05-19T23:10:33.810Z,7.68
2023-05-19T23:13:02.274Z,7.30
2023-05-19T23:15:30.836Z,7.57
2023-05-19T23:17:59.127Z,7.43
2023-05-19T23:20:29.112Z,7.53
2023-05-19T23:22:57.543Z,6.85
2023-05-19T23:25:25.920Z,7.10
2023-05-19T23:27:54.501Z,6.47
2023-05-19T23:30:22.788Z,6.80
2023-05-19T23:32:51.175Z,6.35
2023-05-19T23:35:20.163Z,6.85
2023-05-19T23:37:49.844Z,6.43
2023-05-19T23:40:18.171Z,6.57
2023-05-19T23:42:46.439Z,6.85
2023-05-19T23:45:14.747Z,6.32
2023-05-19T23:47:43.089Z,6.93
2023-05-19T23:50:11.890Z,7.03
2023-05-19T23:52:40.088Z,6.18
2023-05-19T23:55:12.716Z,6.65
2023-05-19T23:57:40.924Z,6.05
